SAS4492 ENGM-ENSB
Flight info
| Callsign | SAS4492 |
|---|---|
| Flight time | N/A |
| Altitude | 36000 |
| Route | RIBBE DCT OMEXA/N0447F380 DCT SUSES |
| Aircraft | A21N/M-SDE2E3FGHIRWXY/LB1 |
Departure
| Time | 2026-05-01 13:18 |
|---|---|
| Airport | Oslo-Gardermoen International Airport (ENGM) |
Arrival
| Time | N/A |
|---|---|
| Airport | Svalbard Airport, Longyear (ENSB) |
| Time | Latitude | Longitude | Altitude | Speed | Heading |
|---|---|---|---|---|---|
| 2026-05-01 13:18 | 60.11845 | 11.36236 | 10815 ft | 323 kts | 1° |
| 2026-05-01 13:18 | 60.14140 | 11.36463 | 11286 ft | 339 kts | 354° |
| 2026-05-01 13:18 | 60.16524 | 11.36520 | 12097 ft | 346 kts | 354° |
| 2026-05-01 13:18 | 60.18954 | 11.36637 | 13021 ft | 351 kts | 355° |
| 2026-05-01 13:19 | 60.21385 | 11.36812 | 13940 ft | 357 kts | 355° |
| 2026-05-01 13:19 | 60.23881 | 11.37026 | 14766 ft | 361 kts | 355° |
| 2026-05-01 13:19 | 60.28962 | 11.37518 | 16463 ft | 369 kts | 355° |
| 2026-05-01 13:20 | 60.31538 | 11.37767 | 17293 ft | 373 kts | 355° |
| 2026-05-01 13:20 | 60.34143 | 11.38015 | 18111 ft | 377 kts | 355° |
| 2026-05-01 13:20 | 60.36777 | 11.38266 | 18856 ft | 381 kts | 355° |
| 2026-05-01 13:21 | 60.42123 | 11.38806 | 20242 ft | 388 kts | 356° |
| 2026-05-01 13:21 | 60.44828 | 11.39083 | 20925 ft | 391 kts | 355° |
| 2026-05-01 13:21 | 60.47557 | 11.39350 | 21598 ft | 394 kts | 356° |
| 2026-05-01 13:21 | 60.50306 | 11.39617 | 22230 ft | 398 kts | 356° |
| 2026-05-01 13:22 | 60.53045 | 11.39893 | 22859 ft | 401 kts | 356° |
| 2026-05-01 13:22 | 60.55845 | 11.40172 | 23546 ft | 404 kts | 355° |
| 2026-05-01 13:22 | 60.58666 | 11.40436 | 24112 ft | 407 kts | 355° |
| 2026-05-01 13:22 | 60.61504 | 11.40704 | 24666 ft | 410 kts | 355° |
| 2026-05-01 13:23 | 60.64362 | 11.40979 | 25201 ft | 413 kts | 355° |
| 2026-05-01 13:23 | 60.67242 | 11.41272 | 25733 ft | 416 kts | 355° |
| 2026-05-01 13:23 | 60.70141 | 11.41557 | 26256 ft | 418 kts | 355° |
| 2026-05-01 13:23 | 60.73062 | 11.41838 | 26757 ft | 422 kts | 355° |
| 2026-05-01 13:24 | 60.75999 | 11.42130 | 27259 ft | 424 kts | 355° |
| 2026-05-01 13:24 | 60.78919 | 11.42413 | 27736 ft | 427 kts | 355° |
| 2026-05-01 13:24 | 60.81893 | 11.42698 | 28211 ft | 430 kts | 355° |
| 2026-05-01 13:25 | 60.87904 | 11.43305 | 29136 ft | 436 kts | 355° |
| 2026-05-01 13:25 | 60.90946 | 11.43611 | 29545 ft | 439 kts | 355° |
| 2026-05-01 13:25 | 60.94005 | 11.43923 | 29983 ft | 441 kts | 355° |
| 2026-05-01 13:25 | 60.97083 | 11.44227 | 30371 ft | 444 kts | 355° |
| 2026-05-01 13:26 | 61.00177 | 11.44537 | 30723 ft | 447 kts | 355° |
| 2026-05-01 13:26 | 61.03291 | 11.44849 | 31091 ft | 450 kts | 355° |
| 2026-05-01 13:26 | 61.06381 | 11.45163 | 31454 ft | 452 kts | 355° |
| 2026-05-01 13:26 | 61.09535 | 11.45492 | 31807 ft | 454 kts | 355° |
| 2026-05-01 13:27 | 61.12688 | 11.45812 | 32217 ft | 454 kts | 355° |
| 2026-05-01 13:27 | 61.15843 | 11.46133 | 32689 ft | 453 kts | 355° |
| 2026-05-01 13:27 | 61.22122 | 11.46775 | 33557 ft | 450 kts | 355° |
| 2026-05-01 13:28 | 61.28364 | 11.47409 | 34305 ft | 449 kts | 355° |
| 2026-05-01 13:28 | 61.31487 | 11.47732 | 34633 ft | 449 kts | 355° |
| 2026-05-01 13:29 | 61.37667 | 11.48373 | 35267 ft | 447 kts | 355° |
| 2026-05-01 13:29 | 61.43884 | 11.49155 | 35899 ft | 447 kts | 356° |
| 2026-05-01 13:30 | 61.56279 | 11.50768 | 36127 ft | 445 kts | 356° |
| 2026-05-01 13:31 | 61.62424 | 11.51567 | 36115 ft | 445 kts | 356° |
| 2026-05-01 13:32 | 61.77878 | 11.53618 | 36125 ft | 443 kts | 356° |
| 2026-05-01 13:33 | 61.93214 | 11.55673 | 36095 ft | 442 kts | 356° |
| 2026-05-01 13:34 | 62.05529 | 11.57340 | 36129 ft | 444 kts | 355° |
| 2026-05-01 13:35 | 62.14729 | 11.58605 | 36083 ft | 441 kts | 355° |
| 2026-05-01 13:36 | 62.23887 | 11.59854 | 36071 ft | 441 kts | 355° |
| 2026-05-01 13:36 | 62.33081 | 11.61112 | 36055 ft | 441 kts | 355° |
| 2026-05-01 13:37 | 62.39209 | 11.61965 | 36064 ft | 441 kts | 355° |
| 2026-05-01 13:37 | 62.45328 | 11.62818 | 36051 ft | 440 kts | 355° |
| 2026-05-01 13:38 | 62.54457 | 11.64084 | 36033 ft | 440 kts | 355° |
| 2026-05-01 13:39 | 62.60566 | 11.64933 | 36073 ft | 440 kts | 355° |
| 2026-05-01 13:39 | 62.66684 | 11.65795 | 36089 ft | 441 kts | 355° |
| 2026-05-01 13:40 | 62.72822 | 11.66662 | 36064 ft | 442 kts | 355° |
| 2026-05-01 13:40 | 62.78917 | 11.67526 | 36048 ft | 442 kts | 355° |
| 2026-05-01 13:41 | 62.85060 | 11.68402 | 36036 ft | 442 kts | 355° |
| 2026-05-01 13:41 | 62.91199 | 11.69286 | 36022 ft | 442 kts | 355° |
| 2026-05-01 13:42 | 62.97340 | 11.70166 | 36044 ft | 443 kts | 354° |
| 2026-05-01 13:42 | 63.03513 | 11.71053 | 36028 ft | 445 kts | 355° |
| 2026-05-01 13:43 | 63.09655 | 11.71952 | 36018 ft | 445 kts | 355° |
| 2026-05-01 13:43 | 63.15835 | 11.72874 | 36023 ft | 445 kts | 355° |
| 2026-05-01 13:44 | 63.22020 | 11.73780 | 36026 ft | 445 kts | 355° |
| 2026-05-01 13:44 | 63.28202 | 11.74693 | 36051 ft | 445 kts | 354° |
| 2026-05-01 13:45 | 63.34342 | 11.75602 | 36033 ft | 445 kts | 354° |
| 2026-05-01 13:45 | 63.40522 | 11.76505 | 36036 ft | 445 kts | 354° |
| 2026-05-01 13:46 | 63.46702 | 11.77425 | 36037 ft | 445 kts | 354° |
| 2026-05-01 13:46 | 63.52889 | 11.78352 | 36044 ft | 445 kts | 354° |
| 2026-05-01 13:47 | 63.59027 | 11.79261 | 36078 ft | 446 kts | 354° |
| 2026-05-01 13:47 | 63.65233 | 11.80209 | 36064 ft | 448 kts | 354° |
| 2026-05-01 13:48 | 63.71455 | 11.81151 | 36056 ft | 448 kts | 354° |
| 2026-05-01 13:48 | 63.77674 | 11.82081 | 36069 ft | 448 kts | 354° |
| 2026-05-01 13:49 | 63.83858 | 11.83033 | 36074 ft | 448 kts | 354° |
| 2026-05-01 13:49 | 63.90067 | 11.83981 | 36100 ft | 448 kts | 354° |
| 2026-05-01 13:50 | 63.96303 | 11.84935 | 36073 ft | 449 kts | 354° |
| 2026-05-01 13:50 | 64.02535 | 11.85905 | 36076 ft | 449 kts | 354° |
| 2026-05-01 13:51 | 64.08779 | 11.86880 | 36080 ft | 451 kts | 354° |
| 2026-05-01 13:51 | 64.15007 | 11.87850 | 36080 ft | 452 kts | 354° |
| 2026-05-01 13:52 | 64.21282 | 11.88834 | 36076 ft | 452 kts | 354° |
| 2026-05-01 13:52 | 64.27557 | 11.89824 | 36084 ft | 452 kts | 354° |
| 2026-05-01 13:53 | 64.33833 | 11.90817 | 36084 ft | 452 kts | 354° |
| 2026-05-01 13:53 | 64.43194 | 11.92323 | 36081 ft | 452 kts | 354° |
| 2026-05-01 13:54 | 64.49466 | 11.93316 | 36109 ft | 452 kts | 355° |
| 2026-05-01 13:54 | 64.55740 | 11.94327 | 36085 ft | 453 kts | 355° |
| 2026-05-01 13:55 | 64.62028 | 11.95342 | 36081 ft | 453 kts | 355° |
| 2026-05-01 13:55 | 64.68275 | 11.96357 | 36081 ft | 453 kts | 355° |
| 2026-05-01 13:56 | 64.74561 | 11.97392 | 36072 ft | 453 kts | 355° |
| 2026-05-01 13:56 | 64.80849 | 11.98439 | 36064 ft | 453 kts | 355° |
| 2026-05-01 13:57 | 64.86071 | 11.99295 | 36091 ft | 452 kts | 355° |
| 2026-05-01 13:57 | 64.93428 | 12.00493 | 36072 ft | 454 kts | 355° |
| 2026-05-01 13:58 | 64.99676 | 12.01539 | 36064 ft | 454 kts | 355° |
| 2026-05-01 13:58 | 65.05965 | 12.02587 | 36040 ft | 452 kts | 355° |
| 2026-05-01 13:59 | 65.12248 | 12.03637 | 36058 ft | 453 kts | 355° |
| 2026-05-01 13:59 | 65.17481 | 12.04519 | 36068 ft | 454 kts | 355° |
| 2026-05-01 14:00 | 65.23786 | 12.05589 | 36050 ft | 454 kts | 355° |
| 2026-05-01 14:00 | 65.31112 | 12.06831 | 36041 ft | 454 kts | 355° |
| 2026-05-01 14:01 | 65.36349 | 12.07731 | 36029 ft | 453 kts | 355° |
| 2026-05-01 14:01 | 65.42643 | 12.08809 | 36023 ft | 453 kts | 355° |
| 2026-05-01 14:02 | 65.48945 | 12.09900 | 36046 ft | 456 kts | 355° |
| 2026-05-01 14:02 | 65.55283 | 12.10997 | 36021 ft | 457 kts | 355° |
| 2026-05-01 14:03 | 65.61632 | 12.12108 | 36019 ft | 457 kts | 355° |
| 2026-05-01 14:03 | 65.67931 | 12.13210 | 36011 ft | 457 kts | 355° |
| 2026-05-01 14:04 | 65.74283 | 12.14339 | 36012 ft | 457 kts | 355° |
| 2026-05-01 14:04 | 65.80615 | 12.15466 | 36037 ft | 454 kts | 355° |
| 2026-05-01 14:05 | 65.86916 | 12.16585 | 36007 ft | 454 kts | 355° |
| 2026-05-01 14:05 | 65.93177 | 12.17703 | 35995 ft | 454 kts | 355° |
| 2026-05-01 14:06 | 65.99476 | 12.18831 | 35995 ft | 454 kts | 355° |
| 2026-05-01 14:06 | 66.05776 | 12.19971 | 35997 ft | 454 kts | 355° |
| 2026-05-01 14:07 | 66.12073 | 12.21132 | 36008 ft | 453 kts | 355° |
| 2026-05-01 14:08 | 66.21477 | 12.22832 | 35976 ft | 454 kts | 355° |
| 2026-05-01 14:08 | 66.27794 | 12.23991 | 35967 ft | 456 kts | 355° |
| 2026-05-01 14:09 | 66.34125 | 12.25160 | 35947 ft | 457 kts | 355° |
| 2026-05-01 14:09 | 66.40464 | 12.26333 | 35946 ft | 456 kts | 355° |
| 2026-05-01 14:10 | 66.46760 | 12.27538 | 35956 ft | 458 kts | 355° |
| 2026-05-01 14:10 | 66.53121 | 12.28737 | 35938 ft | 458 kts | 355° |
| 2026-05-01 14:11 | 66.59482 | 12.29897 | 35930 ft | 458 kts | 355° |
| 2026-05-01 14:11 | 66.68976 | 12.31696 | 35923 ft | 458 kts | 355° |
| 2026-05-01 14:12 | 66.75340 | 12.32930 | 35964 ft | 458 kts | 355° |
| 2026-05-01 14:12 | 66.81704 | 12.34155 | 35917 ft | 459 kts | 355° |
| 2026-05-01 14:13 | 66.88075 | 12.35385 | 35907 ft | 460 kts | 355° |
| 2026-05-01 14:13 | 66.94412 | 12.36606 | 35899 ft | 459 kts | 355° |
| 2026-05-01 14:14 | 67.00790 | 12.37825 | 35898 ft | 460 kts | 355° |
| 2026-05-01 14:14 | 67.07167 | 12.39073 | 35946 ft | 460 kts | 356° |
| 2026-05-01 14:15 | 67.13539 | 12.40328 | 35897 ft | 460 kts | 356° |
| 2026-05-01 14:15 | 67.19877 | 12.41580 | 35879 ft | 460 kts | 356° |
| 2026-05-01 14:16 | 67.26264 | 12.42850 | 35874 ft | 460 kts | 356° |
| 2026-05-01 14:16 | 67.32648 | 12.44129 | 35871 ft | 460 kts | 356° |
| 2026-05-01 14:17 | 67.39025 | 12.45410 | 35870 ft | 460 kts | 356° |
| 2026-05-01 14:17 | 67.45412 | 12.46698 | 35870 ft | 460 kts | 356° |
| 2026-05-01 14:18 | 67.51751 | 12.47988 | 35871 ft | 460 kts | 356° |
| 2026-05-01 14:18 | 67.58136 | 12.49296 | 35874 ft | 460 kts | 356° |
| 2026-05-01 14:19 | 67.64517 | 12.50605 | 35875 ft | 460 kts | 356° |
| 2026-05-01 14:19 | 67.70891 | 12.51922 | 35889 ft | 459 kts | 356° |
| 2026-05-01 14:20 | 67.80415 | 12.53903 | 35872 ft | 460 kts | 356° |
| 2026-05-01 14:21 | 67.86790 | 12.55233 | 35864 ft | 460 kts | 356° |
| 2026-05-01 14:21 | 67.93175 | 12.56583 | 35857 ft | 460 kts | 356° |
| 2026-05-01 14:22 | 68.02745 | 12.58612 | 35841 ft | 460 kts | 356° |
| 2026-05-01 14:22 | 68.09085 | 12.59963 | 35859 ft | 461 kts | 356° |
| 2026-05-01 14:23 | 68.15496 | 12.61345 | 35835 ft | 463 kts | 356° |
| 2026-05-01 14:23 | 68.21920 | 12.62736 | 35830 ft | 463 kts | 356° |
| 2026-05-01 14:24 | 68.28340 | 12.64139 | 35820 ft | 463 kts | 356° |
| 2026-05-01 14:24 | 68.34718 | 12.65518 | 35819 ft | 463 kts | 356° |
| 2026-05-01 14:25 | 68.41143 | 12.66940 | 35836 ft | 463 kts | 356° |
| 2026-05-01 14:25 | 68.47576 | 12.68351 | 35843 ft | 464 kts | 357° |
| 2026-05-01 14:26 | 68.57263 | 12.70502 | 35804 ft | 466 kts | 357° |
| 2026-05-01 14:27 | 68.63679 | 12.71940 | 35806 ft | 465 kts | 357° |
| 2026-05-01 14:27 | 68.70135 | 12.73403 | 35800 ft | 465 kts | 357° |
| 2026-05-01 14:28 | 68.79820 | 12.75587 | 35792 ft | 466 kts | 357° |
| 2026-05-01 14:28 | 68.86282 | 12.77070 | 35785 ft | 466 kts | 357° |
| 2026-05-01 14:29 | 68.92701 | 12.78567 | 35768 ft | 466 kts | 357° |
| 2026-05-01 14:30 | 69.05611 | 12.81274 | 35816 ft | 464 kts | 356° |
| 2026-05-01 14:31 | 69.15310 | 12.82775 | 35772 ft | 466 kts | 356° |
| 2026-05-01 14:31 | 69.21751 | 12.83797 | 35753 ft | 466 kts | 356° |
| 2026-05-01 14:32 | 69.28224 | 12.84830 | 35750 ft | 466 kts | 356° |
| 2026-05-01 14:32 | 69.34703 | 12.85850 | 35748 ft | 466 kts | 356° |
| 2026-05-01 14:33 | 69.41177 | 12.86884 | 35775 ft | 466 kts | 356° |
| 2026-05-01 14:33 | 69.47668 | 12.87931 | 35747 ft | 467 kts | 356° |
| 2026-05-01 14:34 | 69.54113 | 12.88980 | 35739 ft | 467 kts | 356° |
| 2026-05-01 14:34 | 69.60605 | 12.90037 | 35730 ft | 467 kts | 356° |
| 2026-05-01 14:35 | 69.67094 | 12.91106 | 35722 ft | 467 kts | 356° |
| 2026-05-01 14:35 | 69.73540 | 12.92168 | 35752 ft | 466 kts | 356° |
| 2026-05-01 14:36 | 69.80020 | 12.93236 | 35726 ft | 467 kts | 356° |
| 2026-05-01 14:36 | 69.86504 | 12.94322 | 35705 ft | 467 kts | 356° |
| 2026-05-01 14:37 | 69.92988 | 12.95424 | 35703 ft | 467 kts | 356° |
| 2026-05-01 14:37 | 69.99474 | 12.96516 | 35701 ft | 467 kts | 356° |
| 2026-05-01 14:38 | 70.05917 | 12.97613 | 35698 ft | 467 kts | 356° |
| 2026-05-01 14:38 | 70.12406 | 12.98724 | 35724 ft | 468 kts | 357° |
| 2026-05-01 14:39 | 70.18906 | 12.99841 | 35691 ft | 468 kts | 356° |
| 2026-05-01 14:39 | 70.25409 | 13.00961 | 35684 ft | 468 kts | 357° |
| 2026-05-01 14:40 | 70.31869 | 13.02091 | 35682 ft | 468 kts | 357° |
| 2026-05-01 14:40 | 70.38372 | 13.03240 | 35674 ft | 468 kts | 357° |
| 2026-05-01 14:41 | 70.44879 | 13.04408 | 35693 ft | 469 kts | 357° |
| 2026-05-01 14:41 | 70.51392 | 13.05566 | 35687 ft | 469 kts | 357° |
| 2026-05-01 14:42 | 70.57918 | 13.06741 | 35663 ft | 470 kts | 357° |
| 2026-05-01 14:42 | 70.64397 | 13.07896 | 35660 ft | 470 kts | 357° |
| 2026-05-01 14:43 | 70.70917 | 13.09082 | 35652 ft | 470 kts | 357° |
| 2026-05-01 14:43 | 70.77442 | 13.10274 | 35648 ft | 470 kts | 357° |
| 2026-05-01 14:44 | 70.83967 | 13.11467 | 35640 ft | 470 kts | 357° |
| 2026-05-01 14:44 | 70.93710 | 13.13275 | 35640 ft | 470 kts | 357° |
| 2026-05-01 14:45 | 71.03495 | 13.15106 | 35640 ft | 470 kts | 357° |
| 2026-05-01 14:46 | 71.10020 | 13.16342 | 35672 ft | 470 kts | 357° |
| 2026-05-01 14:46 | 71.19774 | 13.18198 | 35641 ft | 470 kts | 357° |
| 2026-05-01 14:47 | 71.26304 | 13.19452 | 35633 ft | 470 kts | 357° |
| 2026-05-01 14:48 | 71.36099 | 13.21354 | 35628 ft | 470 kts | 357° |
| 2026-05-01 14:48 | 71.45882 | 13.23263 | 35668 ft | 470 kts | 358° |
| 2026-05-01 14:49 | 71.58872 | 13.25837 | 35627 ft | 469 kts | 358° |
| 2026-05-01 14:50 | 71.71871 | 13.28443 | 35621 ft | 469 kts | 358° |
| 2026-05-01 14:51 | 71.81646 | 13.30429 | 35657 ft | 469 kts | 358° |
| 2026-05-01 14:52 | 71.91421 | 13.32440 | 35631 ft | 469 kts | 358° |
| 2026-05-01 14:53 | 72.01155 | 13.34461 | 35631 ft | 469 kts | 358° |
| 2026-05-01 14:53 | 72.07669 | 13.35850 | 35628 ft | 469 kts | 358° |
| 2026-05-01 14:54 | 72.14181 | 13.37201 | 35634 ft | 469 kts | 358° |
| 2026-05-01 14:54 | 72.20692 | 13.38550 | 35644 ft | 469 kts | 358° |
| 2026-05-01 14:55 | 72.27202 | 13.39929 | 35636 ft | 468 kts | 358° |
| 2026-05-01 14:55 | 72.33664 | 13.41322 | 35635 ft | 468 kts | 359° |
| 2026-05-01 14:56 | 72.40166 | 13.42746 | 35637 ft | 468 kts | 359° |
| 2026-05-01 14:56 | 72.46670 | 13.44173 | 35633 ft | 468 kts | 359° |
| 2026-05-01 14:57 | 72.53170 | 13.45603 | 35669 ft | 468 kts | 359° |
| 2026-05-01 14:57 | 72.62871 | 13.47739 | 35638 ft | 468 kts | 359° |
| 2026-05-01 14:58 | 72.69369 | 13.49202 | 35637 ft | 468 kts | 359° |
| 2026-05-01 14:58 | 72.75866 | 13.50675 | 35640 ft | 468 kts | 359° |
| 2026-05-01 14:59 | 72.82365 | 13.52149 | 35638 ft | 468 kts | 359° |
| 2026-05-01 14:59 | 72.88856 | 13.53645 | 35654 ft | 468 kts | 360° |
| 2026-05-01 15:00 | 72.98553 | 13.55882 | 35637 ft | 468 kts | 360° |
| 2026-05-01 15:01 | 73.05046 | 13.57396 | 35639 ft | 468 kts | 0° |
| 2026-05-01 15:01 | 73.11535 | 13.58909 | 35631 ft | 467 kts | 360° |
| 2026-05-01 15:02 | 73.18024 | 13.60455 | 35631 ft | 467 kts | 0° |
| 2026-05-01 15:02 | 73.24473 | 13.61991 | 35641 ft | 467 kts | 0° |
| 2026-05-01 15:03 | 73.30960 | 13.63542 | 35632 ft | 467 kts | 0° |
| 2026-05-01 15:03 | 73.37449 | 13.65123 | 35626 ft | 467 kts | 0° |
| 2026-05-01 15:04 | 73.43940 | 13.66708 | 35622 ft | 467 kts | 0° |
| 2026-05-01 15:04 | 73.50384 | 13.68292 | 35623 ft | 467 kts | 0° |
| 2026-05-01 15:05 | 73.56874 | 13.69893 | 35644 ft | 467 kts | 1° |
| 2026-05-01 15:05 | 73.63363 | 13.71520 | 35626 ft | 467 kts | 1° |
| 2026-05-01 15:06 | 73.69850 | 13.73161 | 35625 ft | 467 kts | 1° |
| 2026-05-01 15:06 | 73.76292 | 13.74798 | 35623 ft | 467 kts | 1° |
| 2026-05-01 15:07 | 73.82779 | 13.76447 | 35615 ft | 467 kts | 1° |
| 2026-05-01 15:07 | 73.89264 | 13.78101 | 35616 ft | 467 kts | 1° |
| 2026-05-01 15:08 | 73.95754 | 13.79768 | 35620 ft | 467 kts | 1° |
| 2026-05-01 15:08 | 74.02196 | 13.81460 | 35614 ft | 467 kts | 1° |
| 2026-05-01 15:09 | 74.08685 | 13.83161 | 35607 ft | 467 kts | 1° |
| 2026-05-01 15:09 | 74.15167 | 13.84871 | 35607 ft | 467 kts | 1° |
| 2026-05-01 15:10 | 74.21652 | 13.86624 | 35606 ft | 467 kts | 1° |
| 2026-05-01 15:10 | 74.31369 | 13.89285 | 35605 ft | 467 kts | 1° |
| 2026-05-01 15:11 | 74.41046 | 13.91918 | 35596 ft | 467 kts | 1° |
| 2026-05-01 15:12 | 74.47523 | 13.93708 | 35595 ft | 467 kts | 1° |
| 2026-05-01 15:12 | 74.57238 | 13.96425 | 35605 ft | 467 kts | 1° |
| 2026-05-01 15:14 | 74.73391 | 14.01028 | 35596 ft | 467 kts | 2° |
| 2026-05-01 15:14 | 74.83118 | 14.03822 | 35583 ft | 467 kts | 2° |
| 2026-05-01 15:15 | 74.96041 | 14.07624 | 35577 ft | 467 kts | 2° |
| 2026-05-01 15:16 | 75.09014 | 14.11486 | 35577 ft | 468 kts | 2° |
| 2026-05-01 15:18 | 75.25157 | 14.18812 | 35569 ft | 469 kts | 6° |
| 2026-05-01 15:19 | 75.38093 | 14.25748 | 35563 ft | 469 kts | 6° |
| 2026-05-01 15:19 | 75.47751 | 14.31002 | 35553 ft | 469 kts | 6° |
| 2026-05-01 15:20 | 75.57444 | 14.36351 | 35547 ft | 469 kts | 6° |
| 2026-05-01 15:21 | 75.63910 | 14.39945 | 35537 ft | 469 kts | 6° |
| 2026-05-01 15:21 | 75.70371 | 14.43579 | 35540 ft | 468 kts | 6° |
| 2026-05-01 15:22 | 75.80012 | 14.49064 | 35533 ft | 468 kts | 6° |
| 2026-05-01 15:22 | 75.86469 | 14.52771 | 35534 ft | 469 kts | 7° |
| 2026-05-01 15:23 | 75.92927 | 14.56519 | 35525 ft | 469 kts | 7° |
| 2026-05-01 15:23 | 75.99340 | 14.60275 | 35523 ft | 469 kts | 6° |
| 2026-05-01 15:24 | 76.02543 | 14.62166 | 35354 ft | 461 kts | 7° |
| 2026-05-01 15:24 | 76.05703 | 14.64044 | 34953 ft | 457 kts | 7° |
| 2026-05-01 15:24 | 76.08844 | 14.65908 | 34464 ft | 455 kts | 7° |
| 2026-05-01 15:24 | 76.11967 | 14.67772 | 33944 ft | 452 kts | 7° |
| 2026-05-01 15:25 | 76.15080 | 14.69635 | 33430 ft | 451 kts | 7° |
| 2026-05-01 15:25 | 76.18172 | 14.71497 | 32850 ft | 447 kts | 7° |
| 2026-05-01 15:25 | 76.21241 | 14.73347 | 32311 ft | 443 kts | 7° |
| 2026-05-01 15:25 | 76.24275 | 14.75193 | 31797 ft | 438 kts | 7° |
| 2026-05-01 15:26 | 76.27279 | 14.77026 | 31280 ft | 434 kts | 7° |
| 2026-05-01 15:26 | 76.30219 | 14.78834 | 30783 ft | 430 kts | 7° |
| 2026-05-01 15:26 | 76.33167 | 14.80656 | 30263 ft | 427 kts | 7° |
| 2026-05-01 15:26 | 76.36098 | 14.82470 | 29760 ft | 424 kts | 7° |
| 2026-05-01 15:27 | 76.39001 | 14.84273 | 29195 ft | 420 kts | 7° |
| 2026-05-01 15:27 | 76.41878 | 14.86071 | 28611 ft | 416 kts | 7° |
| 2026-05-01 15:27 | 76.44726 | 14.87847 | 28093 ft | 411 kts | 8° |
| 2026-05-01 15:28 | 76.50296 | 14.91361 | 27166 ft | 399 kts | 8° |
| 2026-05-01 15:28 | 76.52984 | 14.93067 | 26718 ft | 393 kts | 8° |
| 2026-05-01 15:28 | 76.55678 | 14.94780 | 26263 ft | 390 kts | 8° |
| 2026-05-01 15:29 | 76.61029 | 14.98201 | 25371 ft | 386 kts | 8° |
| 2026-05-01 15:29 | 76.63679 | 14.99905 | 24928 ft | 384 kts | 8° |
| 2026-05-01 15:29 | 76.68942 | 15.03321 | 24050 ft | 381 kts | 8° |
| 2026-05-01 15:30 | 76.74169 | 15.06737 | 23163 ft | 379 kts | 8° |
| 2026-05-01 15:31 | 76.84425 | 15.13513 | 21256 ft | 368 kts | 9° |
| 2026-05-01 15:31 | 76.89445 | 15.16863 | 20384 ft | 362 kts | 9° |
| 2026-05-01 15:32 | 76.94356 | 15.20169 | 19550 ft | 356 kts | 9° |
| 2026-05-01 15:32 | 76.99218 | 15.23465 | 18777 ft | 352 kts | 9° |
| 2026-05-01 15:33 | 77.06443 | 15.28418 | 17622 ft | 349 kts | 9° |
| 2026-05-01 15:34 | 77.13606 | 15.33362 | 16449 ft | 343 kts | 10° |